sensor_id;sensor_type;location;lat;lon;timestamp;pressure;altitude;pressure_sealevel;temperature;humidity
6198;BME280;3132;42.622;23.328;2022-08-11T00:01:54;93004.50;;;18.60;78.47
6198;BME280;3132;42.622;23.328;2022-08-11T00:04:22;93014.13;;;18.65;78.45
6198;BME280;3132;42.622;23.328;2022-08-11T00:06:49;93009.63;;;18.65;77.74
6198;BME280;3132;42.622;23.328;2022-08-11T00:09:19;93013.56;;;18.59;78.41
6198;BME280;3132;42.622;23.328;2022-08-11T00:11:53;93015.00;;;18.48;79.75
6198;BME280;3132;42.622;23.328;2022-08-11T00:14:20;93018.69;;;18.56;79.01
6198;BME280;3132;42.622;23.328;2022-08-11T00:16:57;93010.34;;;18.28;80.01
6198;BME280;3132;42.622;23.328;2022-08-11T00:19:28;93002.59;;;18.23;80.24
6198;BME280;3132;42.622;23.328;2022-08-11T00:21:54;93006.47;;;18.26;80.55
6198;BME280;3132;42.622;23.328;2022-08-11T00:24:21;92993.75;;;18.11;80.92
6198;BME280;3132;42.622;23.328;2022-08-11T00:26:52;92997.19;;;18.11;80.75
6198;BME280;3132;42.622;23.328;2022-08-11T00:29:19;93009.72;;;18.31;80.62
6198;BME280;3132;42.622;23.328;2022-08-11T00:31:50;93008.63;;;18.32;80.52
6198;BME280;3132;42.622;23.328;2022-08-11T00:34:19;93005.72;;;18.25;81.21
6198;BME280;3132;42.622;23.328;2022-08-11T00:36:54;92993.75;;;18.19;81.19
6198;BME280;3132;42.622;23.328;2022-08-11T00:39:22;93004.63;;;18.18;81.42
6198;BME280;3132;42.622;23.328;2022-08-11T00:44:54;93004.13;;;18.24;80.81
6198;BME280;3132;42.622;23.328;2022-08-11T00:56:33;92994.81;;;18.18;81.35
6198;BME280;3132;42.622;23.328;2022-08-11T01:07:40;92999.03;;;18.11;82.62
6198;BME280;3132;42.622;23.328;2022-08-11T01:27:22;92973.75;;;17.93;82.50
6198;BME280;3132;42.622;23.328;2022-08-11T01:30:09;92977.66;;;17.87;82.98
6198;BME280;3132;42.622;23.328;2022-08-11T01:41:41;92987.91;;;17.80;84.12
6198;BME280;3132;42.622;23.328;2022-08-11T01:50:34;92989.63;;;17.76;84.47
6198;BME280;3132;42.622;23.328;2022-08-11T01:58:57;92986.69;;;17.69;84.58
6198;BME280;3132;42.622;23.328;2022-08-11T02:01:31;92972.69;;;17.77;83.80
6198;BME280;3132;42.622;23.328;2022-08-11T02:10:35;92976.59;;;17.62;84.17
6198;BME280;3132;42.622;23.328;2022-08-11T02:18:39;92943.19;;;17.23;85.19
6198;BME280;3132;42.622;23.328;2022-08-11T02:21:58;92977.97;;;17.42;85.16
6198;BME280;3132;42.622;23.328;2022-08-11T02:24:48;92970.81;;;17.34;84.81
6198;BME280;3132;42.622;23.328;2022-08-11T02:27:20;92981.72;;;17.41;84.77
6198;BME280;3132;42.622;23.328;2022-08-11T02:29:57;92977.19;;;17.33;85.46
6198;BME280;3132;42.622;23.328;2022-08-11T02:32:35;92975.47;;;17.37;85.00
6198;BME280;3132;42.622;23.328;2022-08-11T02:35:29;92980.00;;;17.28;85.15
6198;BME280;3132;42.622;23.328;2022-08-11T02:41:08;92974.72;;;17.28;84.96
6198;BME280;3132;42.622;23.328;2022-08-11T02:44:05;92969.75;;;17.27;84.94
6198;BME280;3132;42.622;23.328;2022-08-11T02:46:49;92974.41;;;17.30;84.50
6198;BME280;3132;42.622;23.328;2022-08-11T02:49:32;92981.09;;;17.27;84.32
6198;BME280;3132;42.622;23.328;2022-08-11T02:52:40;92978.59;;;17.22;83.90
6198;BME280;3132;42.622;23.328;2022-08-11T02:55:23;92945.81;;;17.06;84.54
6198;BME280;3132;42.622;23.328;2022-08-11T02:58:10;92977.34;;;17.28;84.55
6198;BME280;3132;42.622;23.328;2022-08-11T03:01:22;92965.06;;;17.07;85.09
6198;BME280;3132;42.622;23.328;2022-08-11T03:04:02;92970.19;;;17.03;85.91
6198;BME280;3132;42.622;23.328;2022-08-11T03:09:07;92984.16;;;17.12;84.55
6198;BME280;3132;42.622;23.328;2022-08-11T03:14:53;92967.56;;;16.95;84.40
6198;BME280;3132;42.622;23.328;2022-08-11T03:22:51;92980.44;;;16.96;84.36
6198;BME280;3132;42.622;23.328;2022-08-11T03:33:18;92978.41;;;16.93;84.75
6198;BME280;3132;42.622;23.328;2022-08-11T03:41:35;92974.97;;;17.01;85.56
6198;BME280;3132;42.622;23.328;2022-08-11T03:47:02;92982.91;;;17.01;85.25
6198;BME280;3132;42.622;23.328;2022-08-11T03:49:35;92984.31;;;17.07;84.67
6198;BME280;3132;42.622;23.328;2022-08-11T03:54:54;92982.47;;;17.25;84.10
6198;BME280;3132;42.622;23.328;2022-08-11T04:17:27;92994.75;;;17.81;82.54
6198;BME280;3132;42.622;23.328;2022-08-11T04:22:57;93001.53;;;18.07;82.16
6198;BME280;3132;42.622;23.328;2022-08-11T04:31:05;92993.06;;;18.48;80.22
6198;BME280;3132;42.622;23.328;2022-08-11T04:39:38;92993.75;;;18.65;81.15
6198;BME280;3132;42.622;23.328;2022-08-11T04:48:43;93003.19;;;19.33;78.45
6198;BME280;3132;42.622;23.328;2022-08-11T05:00:31;92991.09;;;19.85;76.07
6198;BME280;3132;42.622;23.328;2022-08-11T05:12:55;92984.63;;;19.62;77.40
6198;BME280;3132;42.622;23.328;2022-08-11T05:15:46;93004.91;;;19.38;78.67
6198;BME280;3132;42.622;23.328;2022-08-11T05:18:33;93003.47;;;19.81;76.94
6198;BME280;3132;42.622;23.328;2022-08-11T05:21:20;93008.97;;;20.09;75.24
6198;BME280;3132;42.622;23.328;2022-08-11T05:24:16;93006.88;;;20.35;73.95
6198;BME280;3132;42.622;23.328;2022-08-11T05:27:04;93007.53;;;20.11;75.39
6198;BME280;3132;42.622;23.328;2022-08-11T05:30:07;93006.78;;;20.55;73.30
6198;BME280;3132;42.622;23.328;2022-08-11T05:33:11;93012.44;;;20.66;72.65
6198;BME280;3132;42.622;23.328;2022-08-11T05:36:04;93005.00;;;20.35;73.38
6198;BME280;3132;42.622;23.328;2022-08-11T05:38:35;93003.03;;;20.12;75.37
6198;BME280;3132;42.622;23.328;2022-08-11T05:41:23;93009.06;;;21.02;72.31
6198;BME280;3132;42.622;23.328;2022-08-11T05:44:09;93013.44;;;21.46;70.21
6198;BME280;3132;42.622;23.328;2022-08-11T05:46:54;93010.72;;;21.82;68.28
6198;BME280;3132;42.622;23.328;2022-08-11T05:49:39;93023.53;;;22.47;66.38
6198;BME280;3132;42.622;23.328;2022-08-11T05:52:26;93037.03;;;24.39;58.98
6198;BME280;3132;42.622;23.328;2022-08-11T05:55:12;93013.25;;;24.12;59.33
6198;BME280;3132;42.622;23.328;2022-08-11T05:58:02;93030.25;;;27.17;51.19
6198;BME280;3132;42.622;23.328;2022-08-11T06:00:30;93040.66;;;30.58;40.73
6198;BME280;3132;42.622;23.328;2022-08-11T06:02:58;93028.38;;;30.43;39.13
6198;BME280;3132;42.622;23.328;2022-08-11T06:05:38;93044.84;;;32.87;35.28
6198;BME280;3132;42.622;23.328;2022-08-11T06:08:06;93047.97;;;32.86;35.46
6198;BME280;3132;42.622;23.328;2022-08-11T06:10:35;93045.94;;;34.97;31.77
6198;BME280;3132;42.622;23.328;2022-08-11T06:13:02;93047.53;;;36.27;28.87
6198;BME280;3132;42.622;23.328;2022-08-11T06:15:30;93036.41;;;33.12;31.96
6198;BME280;3132;42.622;23.328;2022-08-11T06:17:58;93041.50;;;34.68;31.07
6198;BME280;3132;42.622;23.328;2022-08-11T06:20:26;93040.22;;;33.90;31.52
6198;BME280;3132;42.622;23.328;2022-08-11T06:23:02;93037.31;;;35.18;29.95
6198;BME280;3132;42.622;23.328;2022-08-11T06:25:35;93022.03;;;32.24;34.00
6198;BME280;3132;42.622;23.328;2022-08-11T06:28:05;93035.56;;;33.91;30.94
6198;BME280;3132;42.622;23.328;2022-08-11T06:30:44;93022.81;;;29.67;37.05
6198;BME280;3132;42.622;23.328;2022-08-11T06:33:15;93010.84;;;26.87;44.29
6198;BME280;3132;42.622;23.328;2022-08-11T06:36:01;92998.25;;;23.69;51.86
6198;BME280;3132;42.622;23.328;2022-08-11T06:41:25;93009.69;;;24.23;53.26
6198;BME280;3132;42.622;23.328;2022-08-11T06:46:33;93002.09;;;22.87;56.71
6198;BME280;3132;42.622;23.328;2022-08-11T06:49:04;92999.50;;;22.16;57.80
6198;BME280;3132;42.622;23.328;2022-08-11T06:51:33;92993.16;;;22.64;57.17
6198;BME280;3132;42.622;23.328;2022-08-11T06:54:00;93006.81;;;22.93;56.96
6198;BME280;3132;42.622;23.328;2022-08-11T06:56:36;93006.31;;;22.72;56.66
6198;BME280;3132;42.622;23.328;2022-08-11T06:59:22;93007.03;;;23.19;56.56
6198;BME280;3132;42.622;23.328;2022-08-11T07:02:16;93014.00;;;23.39;55.98
6198;BME280;3132;42.622;23.328;2022-08-11T07:04:52;93005.84;;;23.32;56.06
6198;BME280;3132;42.622;23.328;2022-08-11T07:07:41;93014.00;;;23.74;55.09
6198;BME280;3132;42.622;23.328;2022-08-11T07:13:44;93019.31;;;23.24;55.54
6198;BME280;3132;42.622;23.328;2022-08-11T07:23:12;93020.41;;;23.54;54.41
6198;BME280;3132;42.622;23.328;2022-08-11T07:25:59;93014.59;;;24.21;52.98
6198;BME280;3132;42.622;23.328;2022-08-11T07:28:46;92998.38;;;24.11;54.62
6198;BME280;3132;42.622;23.328;2022-08-11T07:31:36;93022.25;;;24.23;52.19
6198;BME280;3132;42.622;23.328;2022-08-11T07:34:11;93024.78;;;24.99;48.87
6198;BME280;3132;42.622;23.328;2022-08-11T07:36:54;93021.38;;;25.47;47.35
6198;BME280;3132;42.622;23.328;2022-08-11T07:39:23;93019.94;;;24.82;50.19
6198;BME280;3132;42.622;23.328;2022-08-11T07:41:51;93029.59;;;24.90;48.78
6198;BME280;3132;42.622;23.328;2022-08-11T07:44:17;93025.72;;;24.87;50.87
6198;BME280;3132;42.622;23.328;2022-08-11T07:46:47;93020.13;;;24.51;51.11
6198;BME280;3132;42.622;23.328;2022-08-11T07:49:36;93026.16;;;24.48;51.12
6198;BME280;3132;42.622;23.328;2022-08-11T07:52:21;93021.66;;;24.52;51.17
6198;BME280;3132;42.622;23.328;2022-08-11T07:55:15;93016.13;;;23.49;53.22
6198;BME280;3132;42.622;23.328;2022-08-11T07:57:45;93016.28;;;23.06;54.19
6198;BME280;3132;42.622;23.328;2022-08-11T08:00:38;93010.66;;;22.96;56.37
6198;BME280;3132;42.622;23.328;2022-08-11T08:03:23;93015.81;;;23.35;55.67
6198;BME280;3132;42.622;23.328;2022-08-11T08:06:08;93000.53;;;23.32;54.94
6198;BME280;3132;42.622;23.328;2022-08-11T08:08:53;92996.25;;;22.81;54.86
6198;BME280;3132;42.622;23.328;2022-08-11T08:11:38;92994.75;;;23.30;53.67
6198;BME280;3132;42.622;23.328;2022-08-11T08:14:22;93012.25;;;23.82;52.89
6198;BME280;3132;42.622;23.328;2022-08-11T08:17:08;93009.16;;;23.80;51.03
6198;BME280;3132;42.622;23.328;2022-08-11T08:19:52;93004.63;;;24.18;49.81
6198;BME280;3132;42.622;23.328;2022-08-11T08:22:19;92998.66;;;24.06;50.53
6198;BME280;3132;42.622;23.328;2022-08-11T08:24:46;93014.59;;;24.63;49.38
6198;BME280;3132;42.622;23.328;2022-08-11T08:27:12;93016.81;;;24.38;50.27
6198;BME280;3132;42.622;23.328;2022-08-11T08:29:38;93014.88;;;24.35;50.11
6198;BME280;3132;42.622;23.328;2022-08-11T08:32:24;93006.44;;;24.75;48.91
6198;BME280;3132;42.622;23.328;2022-08-11T08:34:52;93002.59;;;24.72;49.46
6198;BME280;3132;42.622;23.328;2022-08-11T08:37:21;93004.00;;;24.89;48.05
6198;BME280;3132;42.622;23.328;2022-08-11T08:39:57;92986.88;;;25.16;46.27
6198;BME280;3132;42.622;23.328;2022-08-11T08:42:25;92977.25;;;25.34;46.53
6198;BME280;3132;42.622;23.328;2022-08-11T08:44:57;92992.34;;;24.33;48.30
6198;BME280;3132;42.622;23.328;2022-08-11T08:47:23;92976.34;;;25.00;47.21
6198;BME280;3132;42.622;23.328;2022-08-11T08:49:58;93000.63;;;24.92;48.86
6198;BME280;3132;42.622;23.328;2022-08-11T08:52:27;92996.19;;;24.77;47.68
6198;BME280;3132;42.622;23.328;2022-08-11T08:54:57;93006.34;;;24.49;47.69
6198;BME280;3132;42.622;23.328;2022-08-11T08:57:27;92999.06;;;23.89;49.77
6198;BME280;3132;42.622;23.328;2022-08-11T08:59:53;92983.72;;;24.20;49.36
6198;BME280;3132;42.622;23.328;2022-08-11T09:02:23;92970.41;;;24.24;47.57
6198;BME280;3132;42.622;23.328;2022-08-11T09:04:49;92977.03;;;24.71;47.25
6198;BME280;3132;42.622;23.328;2022-08-11T09:07:17;92987.59;;;25.13;47.40
6198;BME280;3132;42.622;23.328;2022-08-11T09:09:47;92982.47;;;25.01;46.94
6198;BME280;3132;42.622;23.328;2022-08-11T09:12:13;92970.25;;;25.26;48.17
6198;BME280;3132;42.622;23.328;2022-08-11T09:14:41;92957.84;;;25.14;46.08
6198;BME280;3132;42.622;23.328;2022-08-11T09:17:30;92987.53;;;24.42;47.97
6198;BME280;3132;42.622;23.328;2022-08-11T09:20:03;92865.63;;;24.27;46.29
6198;BME280;3132;42.622;23.328;2022-08-11T09:22:32;92985.28;;;25.11;45.18
6198;BME280;3132;42.622;23.328;2022-08-11T09:25:19;92982.09;;;24.57;46.82
6198;BME280;3132;42.622;23.328;2022-08-11T09:28:05;92973.28;;;25.24;46.90
6198;BME280;3132;42.622;23.328;2022-08-11T09:30:34;92978.66;;;25.28;45.53
6198;BME280;3132;42.622;23.328;2022-08-11T09:33:00;92969.66;;;25.95;44.28
6198;BME280;3132;42.622;23.328;2022-08-11T09:35:31;92980.50;;;25.76;45.94
6198;BME280;3132;42.622;23.328;2022-08-11T09:37:57;92967.47;;;25.19;46.08
6198;BME280;3132;42.622;23.328;2022-08-11T09:40:46;92973.75;;;25.07;48.57
6198;BME280;3132;42.622;23.328;2022-08-11T09:43:15;92972.97;;;24.17;49.20
6198;BME280;3132;42.622;23.328;2022-08-11T09:46:00;92964.88;;;24.55;49.33
6198;BME280;3132;42.622;23.328;2022-08-11T09:48:28;92960.56;;;24.69;47.86
6198;BME280;3132;42.622;23.328;2022-08-11T09:50:59;92960.09;;;24.64;48.63
6198;BME280;3132;42.622;23.328;2022-08-11T09:53:27;92955.69;;;24.75;48.96
6198;BME280;3132;42.622;23.328;2022-08-11T09:55:52;92959.94;;;25.02;47.12
6198;BME280;3132;42.622;23.328;2022-08-11T09:58:19;92954.38;;;24.88;47.99
6198;BME280;3132;42.622;23.328;2022-08-11T10:00:48;92961.19;;;25.34;47.20
6198;BME280;3132;42.622;23.328;2022-08-11T10:03:24;92952.66;;;25.25;46.09
6198;BME280;3132;42.622;23.328;2022-08-11T10:06:00;92954.75;;;25.12;45.33
6198;BME280;3132;42.622;23.328;2022-08-11T10:08:48;92942.31;;;24.97;45.16
6198;BME280;3132;42.622;23.328;2022-08-11T10:11:17;92947.34;;;25.55;45.41
6198;BME280;3132;42.622;23.328;2022-08-11T10:13:46;92940.47;;;25.83;44.91
6198;BME280;3132;42.622;23.328;2022-08-11T10:16:34;92940.06;;;25.81;45.71
6198;BME280;3132;42.622;23.328;2022-08-11T10:19:02;92936.31;;;25.89;46.18
6198;BME280;3132;42.622;23.328;2022-08-11T10:24:00;92939.59;;;25.20;45.36
6198;BME280;3132;42.622;23.328;2022-08-11T10:26:46;92948.84;;;25.82;44.55
6198;BME280;3132;42.622;23.328;2022-08-11T10:29:31;92945.72;;;25.76;45.19
6198;BME280;3132;42.622;23.328;2022-08-11T10:32:26;92940.97;;;25.63;45.28
6198;BME280;3132;42.622;23.328;2022-08-11T10:35:11;92949.31;;;26.20;44.69
6198;BME280;3132;42.622;23.328;2022-08-11T10:37:40;92940.88;;;26.18;43.58
6198;BME280;3132;42.622;23.328;2022-08-11T10:40:07;92938.41;;;25.44;45.41
6198;BME280;3132;42.622;23.328;2022-08-11T10:42:35;92940.66;;;25.38;46.40
6198;BME280;3132;42.622;23.328;2022-08-11T10:45:20;92936.59;;;25.25;45.52
6198;BME280;3132;42.622;23.328;2022-08-11T10:48:05;92936.25;;;25.53;45.57
6198;BME280;3132;42.622;23.328;2022-08-11T10:50:32;92936.09;;;26.01;45.26
6198;BME280;3132;42.622;23.328;2022-08-11T10:53:17;92923.19;;;25.77;45.83
6198;BME280;3132;42.622;23.328;2022-08-11T10:56:02;92923.88;;;25.41;46.70
6198;BME280;3132;42.622;23.328;2022-08-11T10:58:46;92930.88;;;25.23;47.64
6198;BME280;3132;42.622;23.328;2022-08-11T11:01:34;92921.81;;;25.05;47.70
6198;BME280;3132;42.622;23.328;2022-08-11T11:06:58;92923.56;;;24.94;47.10
6198;BME280;3132;42.622;23.328;2022-08-11T11:09:33;92904.78;;;24.90;46.81
6198;BME280;3132;42.622;23.328;2022-08-11T11:12:13;92912.16;;;25.49;46.28
6198;BME280;3132;42.622;23.328;2022-08-11T11:15:01;92898.19;;;25.07;46.37
6198;BME280;3132;42.622;23.328;2022-08-11T11:17:55;92921.00;;;25.01;46.82
6198;BME280;3132;42.622;23.328;2022-08-11T11:21:07;92925.91;;;25.25;45.94
6198;BME280;3132;42.622;23.328;2022-08-11T11:31:50;92913.59;;;25.43;44.83
6198;BME280;3132;42.622;23.328;2022-08-11T11:37:11;92912.31;;;25.63;43.81
6198;BME280;3132;42.622;23.328;2022-08-11T11:39:39;92901.66;;;25.37;45.00
6198;BME280;3132;42.622;23.328;2022-08-11T11:42:06;92921.78;;;25.27;46.55
6198;BME280;3132;42.622;23.328;2022-08-11T11:44:40;92920.78;;;25.39;44.81
6198;BME280;3132;42.622;23.328;2022-08-11T11:47:10;92918.72;;;25.55;44.62
6198;BME280;3132;42.622;23.328;2022-08-11T11:49:36;92912.31;;;25.63;45.17
6198;BME280;3132;42.622;23.328;2022-08-11T11:52:12;92917.00;;;25.99;43.61
6198;BME280;3132;42.622;23.328;2022-08-11T11:54:39;92904.22;;;25.89;43.82
6198;BME280;3132;42.622;23.328;2022-08-11T11:57:06;92903.47;;;25.92;42.88
6198;BME280;3132;42.622;23.328;2022-08-11T11:59:51;92903.56;;;25.66;43.75
6198;BME280;3132;42.622;23.328;2022-08-11T12:02:39;92899.47;;;26.05;43.08
6198;BME280;3132;42.622;23.328;2022-08-11T12:05:06;92908.28;;;26.09;43.60
6198;BME280;3132;42.622;23.328;2022-08-11T12:07:32;92906.63;;;26.34;41.61
6198;BME280;3132;42.622;23.328;2022-08-11T12:10:18;92876.56;;;26.11;42.62
6198;BME280;3132;42.622;23.328;2022-08-11T12:12:44;92889.41;;;26.79;40.71
6198;BME280;3132;42.622;23.328;2022-08-11T12:15:29;92889.97;;;26.99;40.50
6198;BME280;3132;42.622;23.328;2022-08-11T12:17:55;92883.69;;;26.37;40.60
6198;BME280;3132;42.622;23.328;2022-08-11T12:20:22;92867.66;;;26.88;39.99
6198;BME280;3132;42.622;23.328;2022-08-11T12:22:48;92884.19;;;26.97;41.30
6198;BME280;3132;42.622;23.328;2022-08-11T12:28:55;92890.69;;;27.57;41.64
6198;BME280;3132;42.622;23.328;2022-08-11T12:31:22;92892.47;;;27.32;42.38
6198;BME280;3132;42.622;23.328;2022-08-11T12:33:50;92891.38;;;26.86;43.85
6198;BME280;3132;42.622;23.328;2022-08-11T12:36:16;92877.22;;;26.41;44.07
6198;BME280;3132;42.622;23.328;2022-08-11T12:38:46;92894.13;;;26.09;45.38
6198;BME280;3132;42.622;23.328;2022-08-11T12:41:14;92875.19;;;25.58;46.44
6198;BME280;3132;42.622;23.328;2022-08-11T12:43:59;92894.66;;;25.88;46.40
6198;BME280;3132;42.622;23.328;2022-08-11T12:46:44;92894.00;;;25.98;45.97
6198;BME280;3132;42.622;23.328;2022-08-11T12:49:17;92892.78;;;25.92;46.93
6198;BME280;3132;42.622;23.328;2022-08-11T12:52:05;92888.41;;;25.77;47.50
6198;BME280;3132;42.622;23.328;2022-08-11T12:54:50;92898.75;;;25.79;47.36
6198;BME280;3132;42.622;23.328;2022-08-11T12:57:34;92898.28;;;25.14;49.10
6198;BME280;3132;42.622;23.328;2022-08-11T13:00:20;92900.66;;;24.93;49.02
6198;BME280;3132;42.622;23.328;2022-08-11T13:03:07;92897.06;;;24.82;49.21
6198;BME280;3132;42.622;23.328;2022-08-11T13:05:54;92886.16;;;24.68;49.37
6198;BME280;3132;42.622;23.328;2022-08-11T13:08:22;92885.88;;;24.28;50.65
6198;BME280;3132;42.622;23.328;2022-08-11T13:10:50;92901.78;;;24.47;49.56
6198;BME280;3132;42.622;23.328;2022-08-11T13:13:35;92891.94;;;23.87;52.39
6198;BME280;3132;42.622;23.328;2022-08-11T13:16:02;92900.88;;;23.75;52.54
6198;BME280;3132;42.622;23.328;2022-08-11T13:18:28;92903.06;;;24.08;51.41
6198;BME280;3132;42.622;23.328;2022-08-11T13:20:55;92906.47;;;24.08;51.50
6198;BME280;3132;42.622;23.328;2022-08-11T13:23:22;92908.38;;;23.69;53.23
6198;BME280;3132;42.622;23.328;2022-08-11T13:25:48;92902.66;;;23.48;54.82
6198;BME280;3132;42.622;23.328;2022-08-11T13:28:17;92906.00;;;23.84;53.17
6198;BME280;3132;42.622;23.328;2022-08-11T13:30:42;92906.69;;;23.81;54.09
6198;BME280;3132;42.622;23.328;2022-08-11T13:33:27;92910.56;;;24.02;52.92
6198;BME280;3132;42.622;23.328;2022-08-11T13:35:53;92906.41;;;23.86;53.70
6198;BME280;3132;42.622;23.328;2022-08-11T13:38:21;92903.25;;;23.99;53.83
6198;BME280;3132;42.622;23.328;2022-08-11T13:40:50;92893.09;;;23.86;54.28
6198;BME280;3132;42.622;23.328;2022-08-11T13:43:18;92894.63;;;24.06;53.74
6198;BME280;3132;42.622;23.328;2022-08-11T13:45:45;92886.00;;;24.16;51.83
6198;BME280;3132;42.622;23.328;2022-08-11T13:48:12;92901.28;;;24.15;52.66
6198;BME280;3132;42.622;23.328;2022-08-11T13:50:38;92898.69;;;24.19;52.51
6198;BME280;3132;42.622;23.328;2022-08-11T13:53:24;92891.31;;;24.12;53.21
6198;BME280;3132;42.622;23.328;2022-08-11T13:55:51;92891.53;;;24.49;51.51
6198;BME280;3132;42.622;23.328;2022-08-11T13:58:17;92887.22;;;24.41;52.34
6198;BME280;3132;42.622;23.328;2022-08-11T14:00:44;92873.72;;;24.56;50.28
6198;BME280;3132;42.622;23.328;2022-08-11T14:03:12;92869.16;;;24.57;49.30
6198;BME280;3132;42.622;23.328;2022-08-11T14:05:41;92879.19;;;24.63;49.56
6198;BME280;3132;42.622;23.328;2022-08-11T14:08:13;92869.59;;;24.59;49.13
6198;BME280;3132;42.622;23.328;2022-08-11T14:10:40;92879.91;;;24.60;50.82
6198;BME280;3132;42.622;23.328;2022-08-11T14:13:10;92871.59;;;24.65;51.09
6198;BME280;3132;42.622;23.328;2022-08-11T14:15:59;92849.91;;;24.93;48.46
6198;BME280;3132;42.622;23.328;2022-08-11T14:18:29;92876.75;;;25.03;48.49
6198;BME280;3132;42.622;23.328;2022-08-11T14:20:57;92872.19;;;25.04;48.12
6198;BME280;3132;42.622;23.328;2022-08-11T14:23:45;92863.78;;;24.76;49.01
6198;BME280;3132;42.622;23.328;2022-08-11T14:26:13;92840.81;;;24.49;49.40
6198;BME280;3132;42.622;23.328;2022-08-11T14:31:19;92863.69;;;24.98;49.84
6198;BME280;3132;42.622;23.328;2022-08-11T14:33:46;92863.94;;;25.16;48.13
6198;BME280;3132;42.622;23.328;2022-08-11T14:36:12;92866.28;;;24.91;47.57
6198;BME280;3132;42.622;23.328;2022-08-11T14:38:39;92863.19;;;24.89;48.31
6198;BME280;3132;42.622;23.328;2022-08-11T14:41:06;92861.53;;;25.07;48.50
6198;BME280;3132;42.622;23.328;2022-08-11T14:43:52;92862.97;;;25.31;48.88
6198;BME280;3132;42.622;23.328;2022-08-11T14:46:39;92858.72;;;25.23;47.22
6198;BME280;3132;42.622;23.328;2022-08-11T14:49:25;92848.69;;;24.90;48.41
6198;BME280;3132;42.622;23.328;2022-08-11T14:51:52;92854.75;;;24.87;47.58
6198;BME280;3132;42.622;23.328;2022-08-11T14:57:05;92844.84;;;24.88;46.51
6198;BME280;3132;42.622;23.328;2022-08-11T14:59:31;92840.28;;;24.88;45.82
6198;BME280;3132;42.622;23.328;2022-08-11T15:01:57;92850.84;;;25.34;45.74
6198;BME280;3132;42.622;23.328;2022-08-11T15:04:44;92860.25;;;25.54;44.11
6198;BME280;3132;42.622;23.328;2022-08-11T15:07:10;92845.63;;;25.77;43.53
6198;BME280;3132;42.622;23.328;2022-08-11T15:09:35;92854.53;;;25.88;42.82
6198;BME280;3132;42.622;23.328;2022-08-11T15:12:03;92847.47;;;26.06;42.17
6198;BME280;3132;42.622;23.328;2022-08-11T15:14:35;92851.78;;;26.18;42.09
6198;BME280;3132;42.622;23.328;2022-08-11T15:17:20;92849.31;;;26.42;41.37
6198;BME280;3132;42.622;23.328;2022-08-11T15:19:47;92847.75;;;26.41;42.23
6198;BME280;3132;42.622;23.328;2022-08-11T15:22:32;92850.47;;;26.45;41.19
6198;BME280;3132;42.622;23.328;2022-08-11T15:25:17;92849.84;;;26.18;41.19
6198;BME280;3132;42.622;23.328;2022-08-11T15:27:46;92844.94;;;25.87;42.99
6198;BME280;3132;42.622;23.328;2022-08-11T15:30:31;92818.59;;;25.53;43.37
6198;BME280;3132;42.622;23.328;2022-08-11T15:33:18;92844.88;;;25.47;44.35
6198;BME280;3132;42.622;23.328;2022-08-11T15:36:06;92835.59;;;25.08;46.23
6198;BME280;3132;42.622;23.328;2022-08-11T15:38:54;92820.47;;;25.19;45.28
6198;BME280;3132;42.622;23.328;2022-08-11T15:41:38;92838.13;;;25.27;45.59
6198;BME280;3132;42.622;23.328;2022-08-11T15:44:29;92831.78;;;25.09;46.42
6198;BME280;3132;42.622;23.328;2022-08-11T15:47:16;92832.84;;;25.04;46.57
6198;BME280;3132;42.622;23.328;2022-08-11T15:49:43;92829.81;;;24.76;47.05
6198;BME280;3132;42.622;23.328;2022-08-11T15:52:12;92834.50;;;24.60;47.31
6198;BME280;3132;42.622;23.328;2022-08-11T15:54:41;92831.69;;;24.50;47.71
6198;BME280;3132;42.622;23.328;2022-08-11T15:57:08;92828.72;;;24.06;49.29
6198;BME280;3132;42.622;23.328;2022-08-11T15:59:54;92831.13;;;23.96;49.73
6198;BME280;3132;42.622;23.328;2022-08-11T16:02:41;92839.31;;;24.03;49.31
6198;BME280;3132;42.622;23.328;2022-08-11T16:05:21;92837.59;;;24.14;48.47
6198;BME280;3132;42.622;23.328;2022-08-11T16:07:48;92843.41;;;23.77;49.23
6198;BME280;3132;42.622;23.328;2022-08-11T16:10:17;92851.69;;;23.72;50.07
6198;BME280;3132;42.622;23.328;2022-08-11T16:12:57;92848.84;;;23.85;49.69
6198;BME280;3132;42.622;23.328;2022-08-11T16:15:26;92845.97;;;23.93;48.72
6198;BME280;3132;42.622;23.328;2022-08-11T16:18:14;92841.97;;;23.84;49.20
6198;BME280;3132;42.622;23.328;2022-08-11T16:20:40;92841.88;;;23.77;48.80
6198;BME280;3132;42.622;23.328;2022-08-11T16:23:07;92830.78;;;23.74;48.78
6198;BME280;3132;42.622;23.328;2022-08-11T16:25:34;92837.34;;;23.58;49.51
6198;BME280;3132;42.622;23.328;2022-08-11T16:28:05;92849.78;;;23.92;48.91
6198;BME280;3132;42.622;23.328;2022-08-11T16:30:33;92844.94;;;23.78;48.95
6198;BME280;3132;42.622;23.328;2022-08-11T16:33:00;92848.19;;;23.68;49.26
6198;BME280;3132;42.622;23.328;2022-08-11T16:35:32;92859.50;;;23.62;49.79
6198;BME280;3132;42.622;23.328;2022-08-11T16:38:18;92838.78;;;23.55;49.17
6198;BME280;3132;42.622;23.328;2022-08-11T16:43:32;92862.09;;;23.39;50.12
6198;BME280;3132;42.622;23.328;2022-08-11T16:46:18;92858.75;;;23.42;49.85
6198;BME280;3132;42.622;23.328;2022-08-11T16:49:30;92868.03;;;23.52;49.79
6198;BME280;3132;42.622;23.328;2022-08-11T16:51:57;92865.44;;;23.36;50.24
6198;BME280;3132;42.622;23.328;2022-08-11T16:54:29;92868.47;;;23.35;50.80
6198;BME280;3132;42.622;23.328;2022-08-11T16:56:56;92865.78;;;23.73;48.76
6198;BME280;3132;42.622;23.328;2022-08-11T16:59:43;92872.13;;;23.46;49.40
6198;BME280;3132;42.622;23.328;2022-08-11T17:02:15;92870.16;;;23.43;49.49
6198;BME280;3132;42.622;23.328;2022-08-11T17:05:12;92864.47;;;23.25;50.51
6198;BME280;3132;42.622;23.328;2022-08-11T17:08:00;92888.34;;;23.37;50.32
6198;BME280;3132;42.622;23.328;2022-08-11T17:10:49;92885.69;;;23.22;52.15
6198;BME280;3132;42.622;23.328;2022-08-11T17:16:13;92890.03;;;23.11;52.94
6198;BME280;3132;42.622;23.328;2022-08-11T17:18:48;92903.13;;;23.19;53.05
6198;BME280;3132;42.622;23.328;2022-08-11T17:21:16;92896.25;;;23.34;50.39
6198;BME280;3132;42.622;23.328;2022-08-11T17:23:46;92869.25;;;23.01;52.01
6198;BME280;3132;42.622;23.328;2022-08-11T17:26:15;92894.50;;;23.07;52.61
6198;BME280;3132;42.622;23.328;2022-08-11T17:28:42;92891.88;;;22.91;53.31